sensor_id;sensor_type;location;lat;lon;timestamp;temperature;humidity
58413;DHT22;44209;52.952;6.790;2023-07-31T00:00:31;15.80;99.90
58413;DHT22;44209;52.952;6.790;2023-07-31T00:02:57;15.80;99.90
58413;DHT22;44209;52.952;6.790;2023-07-31T00:05:22;15.70;99.90
58413;DHT22;44209;52.952;6.790;2023-07-31T00:07:48;15.70;99.90
58413;DHT22;44209;52.952;6.790;2023-07-31T00:10:14;15.70;99.90
58413;DHT22;44209;52.952;6.790;2023-07-31T00:12:42;15.70;99.90
58413;DHT22;44209;52.952;6.790;2023-07-31T00:15:09;15.60;99.90
58413;DHT22;44209;52.952;6.790;2023-07-31T00:17:35;15.60;99.90
58413;DHT22;44209;52.952;6.790;2023-07-31T00:20:01;15.50;99.90
58413;DHT22;44209;52.952;6.790;2023-07-31T00:22:27;15.50;99.90
58413;DHT22;44209;52.952;6.790;2023-07-31T00:24:53;15.50;99.90
58413;DHT22;44209;52.952;6.790;2023-07-31T00:27:19;15.50;99.90
58413;DHT22;44209;52.952;6.790;2023-07-31T00:29:44;15.50;99.90
58413;DHT22;44209;52.952;6.790;2023-07-31T00:32:10;15.50;99.90
58413;DHT22;44209;52.952;6.790;2023-07-31T00:34:37;15.50;99.90
58413;DHT22;44209;52.952;6.790;2023-07-31T00:37:03;15.50;99.90
58413;DHT22;44209;52.952;6.790;2023-07-31T00:39:30;15.50;99.90
58413;DHT22;44209;52.952;6.790;2023-07-31T00:41:56;15.50;99.90
58413;DHT22;44209;52.952;6.790;2023-07-31T00:44:22;15.50;99.90
58413;DHT22;44209;52.952;6.790;2023-07-31T00:46:48;15.50;99.90
58413;DHT22;44209;52.952;6.790;2023-07-31T00:49:14;15.50;99.90
58413;DHT22;44209;52.952;6.790;2023-07-31T00:51:40;15.40;99.90
58413;DHT22;44209;52.952;6.790;2023-07-31T00:54:06;15.40;99.90
58413;DHT22;44209;52.952;6.790;2023-07-31T00:56:32;15.40;99.90
58413;DHT22;44209;52.952;6.790;2023-07-31T00:58:58;15.40;99.90
58413;DHT22;44209;52.952;6.790;2023-07-31T01:01:24;15.40;99.90
58413;DHT22;44209;52.952;6.790;2023-07-31T01:03:50;15.40;99.90
58413;DHT22;44209;52.952;6.790;2023-07-31T01:09:04;15.40;99.90
58413;DHT22;44209;52.952;6.790;2023-07-31T01:11:48;15.40;99.90
58413;DHT22;44209;52.952;6.790;2023-07-31T01:14:14;15.30;99.90
58413;DHT22;44209;52.952;6.790;2023-07-31T01:16:40;15.30;99.90
58413;DHT22;44209;52.952;6.790;2023-07-31T01:19:07;15.30;99.90
58413;DHT22;44209;52.952;6.790;2023-07-31T01:21:58;15.30;99.90
58413;DHT22;44209;52.952;6.790;2023-07-31T01:24:48;15.30;99.90
58413;DHT22;44209;52.952;6.790;2023-07-31T01:27:23;15.30;99.90
58413;DHT22;44209;52.952;6.790;2023-07-31T01:29:56;15.30;99.90
58413;DHT22;44209;52.952;6.790;2023-07-31T01:32:25;15.30;99.90
58413;DHT22;44209;52.952;6.790;2023-07-31T01:34:53;15.20;99.90
58413;DHT22;44209;52.952;6.790;2023-07-31T01:37:20;15.30;99.90
58413;DHT22;44209;52.952;6.790;2023-07-31T01:39:46;15.30;99.90
58413;DHT22;44209;52.952;6.790;2023-07-31T01:42:11;15.30;99.90
58413;DHT22;44209;52.952;6.790;2023-07-31T01:44:37;15.30;99.90
58413;DHT22;44209;52.952;6.790;2023-07-31T01:47:03;15.20;99.90
58413;DHT22;44209;52.952;6.790;2023-07-31T01:49:29;15.20;99.90
58413;DHT22;44209;52.952;6.790;2023-07-31T01:51:54;15.20;99.90
58413;DHT22;44209;52.952;6.790;2023-07-31T01:54:20;15.30;99.90
58413;DHT22;44209;52.952;6.790;2023-07-31T01:56:46;15.30;99.90
58413;DHT22;44209;52.952;6.790;2023-07-31T01:59:11;15.20;99.90
58413;DHT22;44209;52.952;6.790;2023-07-31T02:01:37;15.20;99.90
58413;DHT22;44209;52.952;6.790;2023-07-31T02:04:03;15.20;99.90
58413;DHT22;44209;52.952;6.790;2023-07-31T02:06:30;15.20;99.90
58413;DHT22;44209;52.952;6.790;2023-07-31T02:08:56;15.30;99.90
58413;DHT22;44209;52.952;6.790;2023-07-31T02:11:21;15.20;99.90
58413;DHT22;44209;52.952;6.790;2023-07-31T02:13:47;15.20;99.90
58413;DHT22;44209;52.952;6.790;2023-07-31T02:16:13;15.30;99.90
58413;DHT22;44209;52.952;6.790;2023-07-31T02:18:39;15.30;99.90
58413;DHT22;44209;52.952;6.790;2023-07-31T02:21:04;15.30;99.90
58413;DHT22;44209;52.952;6.790;2023-07-31T02:23:30;15.30;99.90
58413;DHT22;44209;52.952;6.790;2023-07-31T02:25:56;15.30;99.90
58413;DHT22;44209;52.952;6.790;2023-07-31T02:28:22;15.30;99.90
58413;DHT22;44209;52.952;6.790;2023-07-31T02:30:47;15.30;99.90
58413;DHT22;44209;52.952;6.790;2023-07-31T02:33:15;15.30;99.90
58413;DHT22;44209;52.952;6.790;2023-07-31T02:35:42;15.30;99.90
58413;DHT22;44209;52.952;6.790;2023-07-31T02:38:07;15.30;99.90
58413;DHT22;44209;52.952;6.790;2023-07-31T02:40:36;15.30;99.90
58413;DHT22;44209;52.952;6.790;2023-07-31T02:43:02;15.40;99.90
58413;DHT22;44209;52.952;6.790;2023-07-31T02:45:28;15.30;99.90
58413;DHT22;44209;52.952;6.790;2023-07-31T02:47:53;15.30;99.90
58413;DHT22;44209;52.952;6.790;2023-07-31T02:50:19;15.40;99.90
58413;DHT22;44209;52.952;6.790;2023-07-31T02:52:45;15.40;99.90
58413;DHT22;44209;52.952;6.790;2023-07-31T02:55:13;15.40;99.90
58413;DHT22;44209;52.952;6.790;2023-07-31T02:57:39;15.40;99.90
58413;DHT22;44209;52.952;6.790;2023-07-31T03:00:05;15.40;99.90
58413;DHT22;44209;52.952;6.790;2023-07-31T03:02:32;15.40;99.90
58413;DHT22;44209;52.952;6.790;2023-07-31T03:04:58;15.40;99.90
58413;DHT22;44209;52.952;6.790;2023-07-31T03:07:24;15.40;99.90
58413;DHT22;44209;52.952;6.790;2023-07-31T03:09:49;15.40;99.90
58413;DHT22;44209;52.952;6.790;2023-07-31T03:12:15;15.50;99.90
58413;DHT22;44209;52.952;6.790;2023-07-31T03:14:41;15.50;99.90
58413;DHT22;44209;52.952;6.790;2023-07-31T03:17:09;15.50;99.90
58413;DHT22;44209;52.952;6.790;2023-07-31T03:19:35;15.50;99.90
58413;DHT22;44209;52.952;6.790;2023-07-31T03:22:01;15.50;99.90
58413;DHT22;44209;52.952;6.790;2023-07-31T03:24:28;15.60;99.90
58413;DHT22;44209;52.952;6.790;2023-07-31T03:26:56;15.60;99.90
58413;DHT22;44209;52.952;6.790;2023-07-31T03:29:22;15.60;99.90
58413;DHT22;44209;52.952;6.790;2023-07-31T03:31:47;15.60;99.90
58413;DHT22;44209;52.952;6.790;2023-07-31T03:34:13;15.60;99.90
58413;DHT22;44209;52.952;6.790;2023-07-31T03:36:42;15.60;99.90
58413;DHT22;44209;52.952;6.790;2023-07-31T03:39:08;15.60;99.90
58413;DHT22;44209;52.952;6.790;2023-07-31T03:41:33;15.60;99.90
58413;DHT22;44209;52.952;6.790;2023-07-31T03:43:59;15.60;99.90
58413;DHT22;44209;52.952;6.790;2023-07-31T03:46:25;15.60;99.90
58413;DHT22;44209;52.952;6.790;2023-07-31T03:48:51;15.60;99.90
58413;DHT22;44209;52.952;6.790;2023-07-31T03:51:17;15.60;99.90
58413;DHT22;44209;52.952;6.790;2023-07-31T03:53:44;15.60;99.90
58413;DHT22;44209;52.952;6.790;2023-07-31T03:56:10;15.60;99.90
58413;DHT22;44209;52.952;6.790;2023-07-31T03:58:36;15.70;99.90
58413;DHT22;44209;52.952;6.790;2023-07-31T04:01:03;15.70;99.90
58413;DHT22;44209;52.952;6.790;2023-07-31T04:03:29;15.70;99.90
58413;DHT22;44209;52.952;6.790;2023-07-31T04:05:55;15.70;99.90
58413;DHT22;44209;52.952;6.790;2023-07-31T04:08:22;15.70;99.90
58413;DHT22;44209;52.952;6.790;2023-07-31T04:10:47;15.70;99.90
58413;DHT22;44209;52.952;6.790;2023-07-31T04:13:14;15.70;99.90
58413;DHT22;44209;52.952;6.790;2023-07-31T04:15:40;15.80;99.90
58413;DHT22;44209;52.952;6.790;2023-07-31T04:18:05;15.80;99.90
58413;DHT22;44209;52.952;6.790;2023-07-31T04:20:31;15.80;99.90
58413;DHT22;44209;52.952;6.790;2023-07-31T04:22:57;15.90;99.90
58413;DHT22;44209;52.952;6.790;2023-07-31T04:25:23;15.90;99.90
58413;DHT22;44209;52.952;6.790;2023-07-31T04:27:51;15.90;99.90
58413;DHT22;44209;52.952;6.790;2023-07-31T04:30:17;15.90;99.90
58413;DHT22;44209;52.952;6.790;2023-07-31T04:32:43;15.90;99.90
58413;DHT22;44209;52.952;6.790;2023-07-31T04:35:08;15.90;99.90
58413;DHT22;44209;52.952;6.790;2023-07-31T04:37:34;15.90;99.90
58413;DHT22;44209;52.952;6.790;2023-07-31T04:40:02;15.90;99.90
58413;DHT22;44209;52.952;6.790;2023-07-31T04:42:31;15.90;99.90
58413;DHT22;44209;52.952;6.790;2023-07-31T04:44:56;15.90;99.90
58413;DHT22;44209;52.952;6.790;2023-07-31T04:47:22;15.90;99.90
58413;DHT22;44209;52.952;6.790;2023-07-31T04:49:48;15.90;99.90
58413;DHT22;44209;52.952;6.790;2023-07-31T04:52:14;15.90;99.90
58413;DHT22;44209;52.952;6.790;2023-07-31T04:54:39;15.90;99.90
58413;DHT22;44209;52.952;6.790;2023-07-31T04:57:06;15.90;99.90
58413;DHT22;44209;52.952;6.790;2023-07-31T04:59:32;15.90;99.90
58413;DHT22;44209;52.952;6.790;2023-07-31T05:01:58;15.90;99.90
58413;DHT22;44209;52.952;6.790;2023-07-31T05:04:23;16.00;99.90
58413;DHT22;44209;52.952;6.790;2023-07-31T05:06:49;15.90;99.90
58413;DHT22;44209;52.952;6.790;2023-07-31T05:09:15;16.00;99.90
58413;DHT22;44209;52.952;6.790;2023-07-31T05:11:41;15.90;99.90
58413;DHT22;44209;52.952;6.790;2023-07-31T05:14:09;16.00;99.90
58413;DHT22;44209;52.952;6.790;2023-07-31T05:16:34;16.00;99.90
58413;DHT22;44209;52.952;6.790;2023-07-31T05:19:00;16.00;99.90
58413;DHT22;44209;52.952;6.790;2023-07-31T05:21:26;16.00;99.90
58413;DHT22;44209;52.952;6.790;2023-07-31T05:23:52;16.00;99.90
58413;DHT22;44209;52.952;6.790;2023-07-31T05:26:18;16.00;99.90
58413;DHT22;44209;52.952;6.790;2023-07-31T05:28:44;16.00;99.90
58413;DHT22;44209;52.952;6.790;2023-07-31T05:31:10;16.00;99.90
58413;DHT22;44209;52.952;6.790;2023-07-31T05:33:35;16.00;99.90
58413;DHT22;44209;52.952;6.790;2023-07-31T05:36:01;16.10;99.90
58413;DHT22;44209;52.952;6.790;2023-07-31T05:38:27;16.10;99.90
58413;DHT22;44209;52.952;6.790;2023-07-31T05:40:52;16.10;99.90
58413;DHT22;44209;52.952;6.790;2023-07-31T05:43:18;16.20;99.90
58413;DHT22;44209;52.952;6.790;2023-07-31T05:45:44;16.20;99.90
58413;DHT22;44209;52.952;6.790;2023-07-31T05:48:12;16.20;99.90
58413;DHT22;44209;52.952;6.790;2023-07-31T05:50:38;16.30;99.90
58413;DHT22;44209;52.952;6.790;2023-07-31T05:53:05;16.30;99.90
58413;DHT22;44209;52.952;6.790;2023-07-31T05:55:32;16.30;99.90
58413;DHT22;44209;52.952;6.790;2023-07-31T05:57:57;16.30;99.90
58413;DHT22;44209;52.952;6.790;2023-07-31T06:00:23;16.30;99.90
58413;DHT22;44209;52.952;6.790;2023-07-31T06:02:49;16.30;99.90
58413;DHT22;44209;52.952;6.790;2023-07-31T06:05:15;16.40;99.90
58413;DHT22;44209;52.952;6.790;2023-07-31T06:07:41;16.40;99.90
58413;DHT22;44209;52.952;6.790;2023-07-31T06:10:07;16.40;99.90
58413;DHT22;44209;52.952;6.790;2023-07-31T06:12:33;16.40;99.90
58413;DHT22;44209;52.952;6.790;2023-07-31T06:15:00;16.40;99.90
58413;DHT22;44209;52.952;6.790;2023-07-31T06:17:25;16.40;99.90
58413;DHT22;44209;52.952;6.790;2023-07-31T06:19:56;16.40;99.90
58413;DHT22;44209;52.952;6.790;2023-07-31T06:22:22;16.40;99.90
58413;DHT22;44209;52.952;6.790;2023-07-31T06:24:47;16.40;99.90
58413;DHT22;44209;52.952;6.790;2023-07-31T06:27:13;16.50;99.90
58413;DHT22;44209;52.952;6.790;2023-07-31T06:29:39;16.50;99.90
58413;DHT22;44209;52.952;6.790;2023-07-31T06:32:05;16.50;99.90
58413;DHT22;44209;52.952;6.790;2023-07-31T06:34:30;16.50;99.90
58413;DHT22;44209;52.952;6.790;2023-07-31T06:36:56;16.50;99.90
58413;DHT22;44209;52.952;6.790;2023-07-31T06:39:22;16.50;99.90
58413;DHT22;44209;52.952;6.790;2023-07-31T06:41:48;16.50;99.90
58413;DHT22;44209;52.952;6.790;2023-07-31T06:44:14;16.50;99.90
58413;DHT22;44209;52.952;6.790;2023-07-31T06:46:40;16.50;99.90
58413;DHT22;44209;52.952;6.790;2023-07-31T06:49:06;16.50;99.90
58413;DHT22;44209;52.952;6.790;2023-07-31T06:51:31;16.50;99.90
58413;DHT22;44209;52.952;6.790;2023-07-31T06:53:58;16.60;99.90
58413;DHT22;44209;52.952;6.790;2023-07-31T06:56:24;16.60;99.90
58413;DHT22;44209;52.952;6.790;2023-07-31T06:58:49;16.60;99.90
58413;DHT22;44209;52.952;6.790;2023-07-31T07:01:15;16.60;99.90
58413;DHT22;44209;52.952;6.790;2023-07-31T07:03:41;16.60;99.90
58413;DHT22;44209;52.952;6.790;2023-07-31T07:06:07;16.60;99.90
58413;DHT22;44209;52.952;6.790;2023-07-31T07:08:32;16.70;99.90
58413;DHT22;44209;52.952;6.790;2023-07-31T07:10:58;16.60;99.90
58413;DHT22;44209;52.952;6.790;2023-07-31T07:13:24;16.60;99.90
58413;DHT22;44209;52.952;6.790;2023-07-31T07:15:50;16.60;99.90
58413;DHT22;44209;52.952;6.790;2023-07-31T07:18:16;16.60;99.90
58413;DHT22;44209;52.952;6.790;2023-07-31T07:20:51;16.60;99.90
58413;DHT22;44209;52.952;6.790;2023-07-31T07:23:18;16.60;99.90
58413;DHT22;44209;52.952;6.790;2023-07-31T07:25:46;16.60;99.90
58413;DHT22;44209;52.952;6.790;2023-07-31T07:28:12;16.50;99.90
58413;DHT22;44209;52.952;6.790;2023-07-31T07:30:37;16.50;99.90
58413;DHT22;44209;52.952;6.790;2023-07-31T07:33:03;16.50;99.90
58413;DHT22;44209;52.952;6.790;2023-07-31T07:35:29;16.50;99.90
58413;DHT22;44209;52.952;6.790;2023-07-31T07:37:55;16.50;99.90
58413;DHT22;44209;52.952;6.790;2023-07-31T07:40:21;16.50;99.90
58413;DHT22;44209;52.952;6.790;2023-07-31T07:42:47;16.50;99.90
58413;DHT22;44209;52.952;6.790;2023-07-31T07:45:13;16.50;99.90
58413;DHT22;44209;52.952;6.790;2023-07-31T07:47:41;16.50;99.90
58413;DHT22;44209;52.952;6.790;2023-07-31T07:50:07;16.50;99.90
58413;DHT22;44209;52.952;6.790;2023-07-31T07:52:33;16.50;99.90
58413;DHT22;44209;52.952;6.790;2023-07-31T07:54:59;16.50;99.90
58413;DHT22;44209;52.952;6.790;2023-07-31T07:57:26;16.50;99.90
58413;DHT22;44209;52.952;6.790;2023-07-31T07:59:51;16.50;99.90
58413;DHT22;44209;52.952;6.790;2023-07-31T08:02:17;16.50;99.90
58413;DHT22;44209;52.952;6.790;2023-07-31T08:04:43;16.60;99.90
58413;DHT22;44209;52.952;6.790;2023-07-31T08:07:11;16.60;99.90
58413;DHT22;44209;52.952;6.790;2023-07-31T08:09:37;16.50;99.90
58413;DHT22;44209;52.952;6.790;2023-07-31T08:12:04;16.50;99.90
58413;DHT22;44209;52.952;6.790;2023-07-31T08:14:30;16.50;99.90
58413;DHT22;44209;52.952;6.790;2023-07-31T08:16:55;16.50;99.90
58413;DHT22;44209;52.952;6.790;2023-07-31T08:19:21;16.50;99.90
58413;DHT22;44209;52.952;6.790;2023-07-31T08:21:47;16.60;99.90
58413;DHT22;44209;52.952;6.790;2023-07-31T08:24:13;16.50;99.90
58413;DHT22;44209;52.952;6.790;2023-07-31T08:26:39;16.50;99.90
58413;DHT22;44209;52.952;6.790;2023-07-31T08:29:04;16.60;99.90
58413;DHT22;44209;52.952;6.790;2023-07-31T08:31:30;16.60;99.90
58413;DHT22;44209;52.952;6.790;2023-07-31T08:33:56;16.70;99.90
58413;DHT22;44209;52.952;6.790;2023-07-31T08:36:22;16.70;99.90
58413;DHT22;44209;52.952;6.790;2023-07-31T08:38:48;16.70;99.90
58413;DHT22;44209;52.952;6.790;2023-07-31T08:41:15;16.70;99.90
58413;DHT22;44209;52.952;6.790;2023-07-31T08:43:44;16.80;99.90
58413;DHT22;44209;52.952;6.790;2023-07-31T08:46:10;16.80;99.90
58413;DHT22;44209;52.952;6.790;2023-07-31T08:48:37;16.80;99.90
58413;DHT22;44209;52.952;6.790;2023-07-31T08:51:04;16.80;99.90
58413;DHT22;44209;52.952;6.790;2023-07-31T08:53:30;16.80;99.90
58413;DHT22;44209;52.952;6.790;2023-07-31T08:55:56;16.80;99.90
58413;DHT22;44209;52.952;6.790;2023-07-31T08:58:24;16.90;99.90
58413;DHT22;44209;52.952;6.790;2023-07-31T09:00:51;16.90;99.90
58413;DHT22;44209;52.952;6.790;2023-07-31T09:03:23;16.90;99.90
58413;DHT22;44209;52.952;6.790;2023-07-31T09:05:51;16.90;99.90
58413;DHT22;44209;52.952;6.790;2023-07-31T09:08:21;16.90;99.90
58413;DHT22;44209;52.952;6.790;2023-07-31T09:10:48;17.00;99.90
58413;DHT22;44209;52.952;6.790;2023-07-31T09:13:17;17.00;99.90
58413;DHT22;44209;52.952;6.790;2023-07-31T09:15:44;17.10;99.90
58413;DHT22;44209;52.952;6.790;2023-07-31T09:18:10;17.20;99.90
58413;DHT22;44209;52.952;6.790;2023-07-31T09:20:36;17.20;99.90
58413;DHT22;44209;52.952;6.790;2023-07-31T09:23:07;17.30;99.90
58413;DHT22;44209;52.952;6.790;2023-07-31T09:25:33;17.30;99.90
58413;DHT22;44209;52.952;6.790;2023-07-31T09:28:01;17.30;99.90
58413;DHT22;44209;52.952;6.790;2023-07-31T09:30:27;17.30;99.90
58413;DHT22;44209;52.952;6.790;2023-07-31T09:33:02;17.40;99.90
58413;DHT22;44209;52.952;6.790;2023-07-31T09:35:33;17.30;99.90
58413;DHT22;44209;52.952;6.790;2023-07-31T09:38:02;17.30;99.90
58413;DHT22;44209;52.952;6.790;2023-07-31T09:43:09;17.30;99.90
58413;DHT22;44209;52.952;6.790;2023-07-31T09:45:38;17.30;99.90
58413;DHT22;44209;52.952;6.790;2023-07-31T09:48:07;17.30;99.90
58413;DHT22;44209;52.952;6.790;2023-07-31T09:50:37;17.30;99.90
58413;DHT22;44209;52.952;6.790;2023-07-31T09:53:04;17.30;99.90
58413;DHT22;44209;52.952;6.790;2023-07-31T09:55:29;17.40;99.90
58413;DHT22;44209;52.952;6.790;2023-07-31T09:57:57;17.40;99.90
58413;DHT22;44209;52.952;6.790;2023-07-31T10:00:23;17.40;99.90
58413;DHT22;44209;52.952;6.790;2023-07-31T10:02:51;17.40;99.90
58413;DHT22;44209;52.952;6.790;2023-07-31T10:05:18;17.40;99.90
58413;DHT22;44209;52.952;6.790;2023-07-31T10:07:55;17.40;99.90
58413;DHT22;44209;52.952;6.790;2023-07-31T10:10:21;17.50;99.90
58413;DHT22;44209;52.952;6.790;2023-07-31T10:12:52;17.60;99.90
58413;DHT22;44209;52.952;6.790;2023-07-31T10:15:18;17.60;99.90
58413;DHT22;44209;52.952;6.790;2023-07-31T10:17:44;17.60;99.90
58413;DHT22;44209;52.952;6.790;2023-07-31T10:20:11;17.70;99.90
58413;DHT22;44209;52.952;6.790;2023-07-31T10:22:38;17.80;99.90
58413;DHT22;44209;52.952;6.790;2023-07-31T10:25:05;17.80;99.90
58413;DHT22;44209;52.952;6.790;2023-07-31T10:27:40;17.90;99.90
58413;DHT22;44209;52.952;6.790;2023-07-31T10:30:11;17.90;99.90
58413;DHT22;44209;52.952;6.790;2023-07-31T10:32:39;18.00;99.90
58413;DHT22;44209;52.952;6.790;2023-07-31T10:35:07;18.00;99.90
58413;DHT22;44209;52.952;6.790;2023-07-31T10:37:38;18.10;99.90
58413;DHT22;44209;52.952;6.790;2023-07-31T10:40:05;18.10;99.90
58413;DHT22;44209;52.952;6.790;2023-07-31T10:42:37;18.20;99.90
58413;DHT22;44209;52.952;6.790;2023-07-31T10:45:08;18.10;99.90
58413;DHT22;44209;52.952;6.790;2023-07-31T10:47:44;18.10;99.90
58413;DHT22;44209;52.952;6.790;2023-07-31T10:50:21;18.10;99.90
58413;DHT22;44209;52.952;6.790;2023-07-31T10:52:53;18.10;99.90
58413;DHT22;44209;52.952;6.790;2023-07-31T10:55:41;18.20;99.90
58413;DHT22;44209;52.952;6.790;2023-07-31T10:58:09;18.30;99.90
58413;DHT22;44209;52.952;6.790;2023-07-31T11:00:46;18.40;99.90
58413;DHT22;44209;52.952;6.790;2023-07-31T11:03:19;18.40;99.90
58413;DHT22;44209;52.952;6.790;2023-07-31T11:05:52;18.50;99.90
58413;DHT22;44209;52.952;6.790;2023-07-31T11:08:23;18.40;99.90
58413;DHT22;44209;52.952;6.790;2023-07-31T11:11:12;18.40;99.90
58413;DHT22;44209;52.952;6.790;2023-07-31T11:16:05;18.40;99.90
58413;DHT22;44209;52.952;6.790;2023-07-31T11:18:30;18.50;99.90
58413;DHT22;44209;52.952;6.790;2023-07-31T11:20:56;18.50;99.90
58413;DHT22;44209;52.952;6.790;2023-07-31T11:23:23;18.60;99.90
58413;DHT22;44209;52.952;6.790;2023-07-31T11:25:49;18.70;99.90
58413;DHT22;44209;52.952;6.790;2023-07-31T11:28:16;18.70;99.90
58413;DHT22;44209;52.952;6.790;2023-07-31T11:30:43;18.70;99.90
58413;DHT22;44209;52.952;6.790;2023-07-31T11:33:11;18.70;99.90
58413;DHT22;44209;52.952;6.790;2023-07-31T11:35:47;18.70;99.90
58413;DHT22;44209;52.952;6.790;2023-07-31T11:38:24;18.70;99.90
58413;DHT22;44209;52.952;6.790;2023-07-31T11:40:50;18.60;99.90
58413;DHT22;44209;52.952;6.790;2023-07-31T11:43:18;18.60;99.90
58413;DHT22;44209;52.952;6.790;2023-07-31T11:45:49;18.60;99.90
58413;DHT22;44209;52.952;6.790;2023-07-31T11:48:19;18.60;99.90
58413;DHT22;44209;52.952;6.790;2023-07-31T11:50:46;18.60;99.90
58413;DHT22;44209;52.952;6.790;2023-07-31T11:53:12;18.60;99.90
58413;DHT22;44209;52.952;6.790;2023-07-31T11:55:39;18.60;99.90
58413;DHT22;44209;52.952;6.790;2023-07-31T11:58:04;18.60;99.90
58413;DHT22;44209;52.952;6.790;2023-07-31T12:00:30;18.70;99.90
58413;DHT22;44209;52.952;6.790;2023-07-31T12:02:56;18.80;99.90
58413;DHT22;44209;52.952;6.790;2023-07-31T12:05:23;18.90;99.90
58413;DHT22;44209;52.952;6.790;2023-07-31T12:07:51;18.90;99.90
58413;DHT22;44209;52.952;6.790;2023-07-31T12:10:31;19.00;99.90
58413;DHT22;44209;52.952;6.790;2023-07-31T12:13:04;19.10;99.90
58413;DHT22;44209;52.952;6.790;2023-07-31T12:15:36;19.20;99.90
58413;DHT22;44209;52.952;6.790;2023-07-31T12:18:10;19.20;99.90
58413;DHT22;44209;52.952;6.790;2023-07-31T12:20:45;19.20;99.90
58413;DHT22;44209;52.952;6.790;2023-07-31T12:25:40;19.00;99.90
58413;DHT22;44209;52.952;6.790;2023-07-31T12:28:07;18.90;99.90
58413;DHT22;44209;52.952;6.790;2023-07-31T12:30:37;18.80;99.90
58413;DHT22;44209;52.952;6.790;2023-07-31T12:33:14;18.70;99.90
58413;DHT22;44209;52.952;6.790;2023-07-31T12:35:45;18.60;99.90
58413;DHT22;44209;52.952;6.790;2023-07-31T12:38:14;18.50;99.90
58413;DHT22;44209;52.952;6.790;2023-07-31T12:40:41;18.50;99.90
58413;DHT22;44209;52.952;6.790;2023-07-31T12:43:08;18.50;99.90
58413;DHT22;44209;52.952;6.790;2023-07-31T12:45:34;18.50;99.90
58413;DHT22;44209;52.952;6.790;2023-07-31T12:48:00;18.60;99.90
58413;DHT22;44209;52.952;6.790;2023-07-31T12:50:27;18.60;99.90
58413;DHT22;44209;52.952;6.790;2023-07-31T12:52:57;18.70;99.90
58413;DHT22;44209;52.952;6.790;2023-07-31T12:55:23;18.90;99.90
58413;DHT22;44209;52.952;6.790;2023-07-31T12:57:49;18.90;99.90
58413;DHT22;44209;52.952;6.790;2023-07-31T13:00:16;19.00;99.90
58413;DHT22;44209;52.952;6.790;2023-07-31T13:02:42;19.00;99.90
58413;DHT22;44209;52.952;6.790;2023-07-31T13:05:08;19.00;99.90
58413;DHT22;44209;52.952;6.790;2023-07-31T13:07:34;19.00;99.90
58413;DHT22;44209;52.952;6.790;2023-07-31T13:09:59;19.00;99.90
58413;DHT22;44209;52.952;6.790;2023-07-31T13:12:25;19.00;99.90
58413;DHT22;44209;52.952;6.790;2023-07-31T13:14:51;19.00;99.90
58413;DHT22;44209;52.952;6.790;2023-07-31T13:17:17;19.00;99.90
58413;DHT22;44209;52.952;6.790;2023-07-31T13:19:43;19.00;99.90
58413;DHT22;44209;52.952;6.790;2023-07-31T13:22:09;19.10;99.90
58413;DHT22;44209;52.952;6.790;2023-07-31T13:24:34;19.10;99.90
58413;DHT22;44209;52.952;6.790;2023-07-31T13:27:00;19.10;99.90
58413;DHT22;44209;52.952;6.790;2023-07-31T13:29:26;19.20;99.90
58413;DHT22;44209;52.952;6.790;2023-07-31T13:31:52;19.20;99.90
58413;DHT22;44209;52.952;6.790;2023-07-31T13:34:18;19.20;99.90
58413;DHT22;44209;52.952;6.790;2023-07-31T13:36:44;19.20;99.90
58413;DHT22;44209;52.952;6.790;2023-07-31T13:39:10;19.20;99.90
58413;DHT22;44209;52.952;6.790;2023-07-31T13:41:35;19.30;99.90
58413;DHT22;44209;52.952;6.790;2023-07-31T13:44:01;19.20;99.90
58413;DHT22;44209;52.952;6.790;2023-07-31T13:46:27;19.30;99.90
58413;DHT22;44209;52.952;6.790;2023-07-31T13:48:52;19.30;99.90
58413;DHT22;44209;52.952;6.790;2023-07-31T13:51:21;19.30;99.90
58413;DHT22;44209;52.952;6.790;2023-07-31T13:53:47;19.30;99.90
58413;DHT22;44209;52.952;6.790;2023-07-31T13:56:13;19.30;99.90
58413;DHT22;44209;52.952;6.790;2023-07-31T13:58:39;19.40;99.90
58413;DHT22;44209;52.952;6.790;2023-07-31T14:01:05;19.30;99.90
58413;DHT22;44209;52.952;6.790;2023-07-31T14:03:31;19.30;99.90
58413;DHT22;44209;52.952;6.790;2023-07-31T14:05:56;19.30;99.90
58413;DHT22;44209;52.952;6.790;2023-07-31T14:08:22;19.30;99.90
58413;DHT22;44209;52.952;6.790;2023-07-31T14:10:48;19.30;99.90
58413;DHT22;44209;52.952;6.790;2023-07-31T14:13:14;19.30;99.90
58413;DHT22;44209;52.952;6.790;2023-07-31T14:15:43;19.40;99.90
58413;DHT22;44209;52.952;6.790;2023-07-31T14:18:09;19.50;99.90
58413;DHT22;44209;52.952;6.790;2023-07-31T14:20:35;19.50;99.90
58413;DHT22;44209;52.952;6.790;2023-07-31T14:23:02;19.50;99.90
58413;DHT22;44209;52.952;6.790;2023-07-31T14:25:28;19.60;99.90
58413;DHT22;44209;52.952;6.790;2023-07-31T14:27:53;19.60;99.90
58413;DHT22;44209;52.952;6.790;2023-07-31T14:30:19;19.70;99.90
58413;DHT22;44209;52.952;6.790;2023-07-31T14:32:46;19.60;99.90
58413;DHT22;44209;52.952;6.790;2023-07-31T14:35:12;19.60;99.90
58413;DHT22;44209;52.952;6.790;2023-07-31T14:37:41;19.60;99.90
58413;DHT22;44209;52.952;6.790;2023-07-31T14:40:09;19.60;99.90
58413;DHT22;44209;52.952;6.790;2023-07-31T14:42:36;19.70;99.90
58413;DHT22;44209;52.952;6.790;2023-07-31T14:45:03;19.70;99.90
58413;DHT22;44209;52.952;6.790;2023-07-31T14:47:28;19.70;99.90
58413;DHT22;44209;52.952;6.790;2023-07-31T14:49:56;19.70;99.90
58413;DHT22;44209;52.952;6.790;2023-07-31T14:52:22;19.70;99.90
58413;DHT22;44209;52.952;6.790;2023-07-31T14:54:48;19.70;99.90
58413;DHT22;44209;52.952;6.790;2023-07-31T14:57:13;19.70;99.90
58413;DHT22;44209;52.952;6.790;2023-07-31T14:59:39;19.70;99.90
58413;DHT22;44209;52.952;6.790;2023-07-31T15:02:06;19.70;99.90
58413;DHT22;44209;52.952;6.790;2023-07-31T15:04:32;19.70;99.90
58413;DHT22;44209;52.952;6.790;2023-07-31T15:06:57;19.70;99.90
58413;DHT22;44209;52.952;6.790;2023-07-31T15:09:23;19.60;99.90
58413;DHT22;44209;52.952;6.790;2023-07-31T15:11:49;19.60;99.90
58413;DHT22;44209;52.952;6.790;2023-07-31T15:14:14;19.50;99.90
58413;DHT22;44209;52.952;6.790;2023-07-31T15:16:40;19.50;99.90
58413;DHT22;44209;52.952;6.790;2023-07-31T15:19:06;19.40;99.90
58413;DHT22;44209;52.952;6.790;2023-07-31T15:21:31;19.40;99.90
58413;DHT22;44209;52.952;6.790;2023-07-31T15:23:57;19.40;99.90
58413;DHT22;44209;52.952;6.790;2023-07-31T15:26:23;19.40;99.90
58413;DHT22;44209;52.952;6.790;2023-07-31T15:28:55;19.40;99.90
58413;DHT22;44209;52.952;6.790;2023-07-31T15:31:21;19.40;99.90
58413;DHT22;44209;52.952;6.790;2023-07-31T15:33:48;19.40;99.90
58413;DHT22;44209;52.952;6.790;2023-07-31T15:36:13;19.40;99.90
58413;DHT22;44209;52.952;6.790;2023-07-31T15:38:39;19.40;99.90